createdAt,value
2017-05-22T00:01:53.923Z,0
2017-05-22T00:06:50.106Z,0
2017-05-22T00:11:45.822Z,0
2017-05-22T00:16:43.545Z,0
2017-05-22T00:21:40.245Z,0
2017-05-22T00:26:35.684Z,0
2017-05-22T00:31:31.971Z,0
2017-05-22T00:36:27.949Z,0
2017-05-22T00:41:24.150Z,0
2017-05-22T00:46:20.843Z,0
2017-05-22T00:51:17.180Z,0
2017-05-22T00:56:13.189Z,0
2017-05-22T01:01:09.369Z,0
2017-05-22T01:06:06.304Z,0
2017-05-22T01:11:01.859Z,0
2017-05-22T01:15:58.458Z,0
2017-05-22T01:20:54.410Z,0
2017-05-22T01:25:50.553Z,0
2017-05-22T01:30:46.251Z,0
2017-05-22T01:35:43.654Z,0
2017-05-22T01:40:40.714Z,0
2017-05-22T01:45:37.043Z,0
2017-05-22T01:50:33.013Z,0
2017-05-22T01:55:30.062Z,0
2017-05-22T02:00:25.999Z,0
2017-05-22T02:05:21.866Z,0
2017-05-22T02:10:17.908Z,0
2017-05-22T02:15:13.849Z,0
2017-05-22T02:20:09.878Z,0
2017-05-22T02:25:07.028Z,0
2017-05-22T02:30:02.588Z,0
2017-05-22T02:34:58.470Z,0
2017-05-22T02:39:54.926Z,0
2017-05-22T02:44:50.774Z,4
2017-05-22T02:49:47.147Z,0
2017-05-22T02:54:43.863Z,4
2017-05-22T02:59:40.450Z,8
2017-05-22T03:04:36.002Z,20
2017-05-22T03:09:31.913Z,32
2017-05-22T03:14:27.915Z,56
2017-05-22T03:19:23.967Z,88
2017-05-22T03:24:20.046Z,132
2017-05-22T03:29:16.762Z,188
2017-05-22T03:34:12.192Z,268
2017-05-22T03:39:08.168Z,372
2017-05-22T03:44:05.217Z,452
2017-05-22T03:49:01.063Z,572
2017-05-22T03:53:56.783Z,708
2017-05-22T03:58:53.101Z,840
2017-05-22T04:03:48.760Z,1008
2017-05-22T04:08:45.593Z,1104
2017-05-22T04:13:41.761Z,1192
2017-05-22T04:18:37.774Z,1364
2017-05-22T04:23:33.613Z,2180
2017-05-22T04:28:30.403Z,2396
2017-05-22T04:33:27.329Z,2932
2017-05-22T04:38:22.934Z,3332
2017-05-22T04:43:20.468Z,4128
2017-05-22T04:48:16.288Z,5196
2017-05-22T04:53:15.108Z,4728
2017-05-22T04:58:13.297Z,6080
2017-05-22T05:03:09.190Z,7936
2017-05-22T05:08:05.687Z,8820
2017-05-22T05:13:02.107Z,4460
2017-05-22T05:17:58.133Z,4352
2017-05-22T05:22:54.690Z,4668
2017-05-22T05:27:50.521Z,8720
2017-05-22T05:32:46.738Z,5756
2017-05-22T05:37:43.517Z,4308
2017-05-22T05:42:40.066Z,4264
2017-05-22T05:47:35.998Z,4872
2017-05-22T05:52:34.888Z,3956
2017-05-22T05:57:32.413Z,3524
2017-05-22T06:02:27.338Z,3488
2017-05-22T06:07:22.957Z,3504
2017-05-22T06:12:19.014Z,3504
2017-05-22T06:17:14.878Z,3552
2017-05-22T06:22:14.602Z,3600
2017-05-22T06:27:10.422Z,3676
2017-05-22T06:32:10.800Z,3728
2017-05-22T06:42:13.498Z,3688
2017-05-22T06:47:08.993Z,3744
2017-05-22T06:52:05.683Z,3772
2017-05-22T06:57:03.158Z,3836
2017-05-22T07:02:00.806Z,3920
2017-05-22T07:12:00.584Z,4120
2017-05-22T07:21:57.362Z,4228
2017-05-22T07:26:53.975Z,4312
2017-05-22T07:31:50.657Z,4440
2017-05-22T07:36:48.916Z,4548
2017-05-22T07:41:44.375Z,4784
2017-05-22T07:46:41.306Z,20416
2017-05-22T07:51:40.886Z,58400
2017-05-22T08:01:43.433Z,52800
2017-05-22T08:06:41.693Z,65568
2017-05-22T08:11:38.607Z,54240
2017-05-22T08:16:36.099Z,57536
2017-05-22T08:21:33.495Z,58080
2017-05-22T08:26:30.673Z,53952
2017-05-22T08:31:27.634Z,58816
2017-05-22T08:36:24.574Z,52864
2017-05-22T08:41:21.307Z,52960
2017-05-22T08:46:17.394Z,66144
2017-05-22T08:51:13.903Z,61408
2017-05-22T08:56:10.502Z,51104
2017-05-22T09:01:06.015Z,66880
2017-05-22T09:06:02.911Z,65504
2017-05-22T09:10:59.148Z,72320
2017-05-22T09:15:59.145Z,61920
2017-05-22T09:20:55.238Z,74176
2017-05-22T09:30:51.331Z,85376
2017-05-22T09:40:52.202Z,80224
2017-05-22T09:45:48.010Z,71488
2017-05-22T09:50:45.091Z,90048
2017-05-22T09:55:40.357Z,76480
2017-05-22T10:00:37.204Z,79744
2017-05-22T10:05:33.536Z,84960
2017-05-22T10:10:29.721Z,86048
2017-05-22T10:15:27.449Z,90528
2017-05-22T10:20:23.964Z,65792
2017-05-22T10:25:20.174Z,75616
2017-05-22T10:30:16.960Z,87584
2017-05-22T10:35:12.890Z,63552
2017-05-22T10:40:09.240Z,67488
2017-05-22T10:45:06.176Z,71168
2017-05-22T10:50:06.213Z,74848
2017-05-22T10:55:02.377Z,22080
2017-05-22T10:59:55.730Z,13432
2017-05-22T11:04:52.626Z,71168
2017-05-22T11:09:50.887Z,70208
2017-05-22T11:14:47.501Z,90976
2017-05-22T11:19:43.323Z,105792
2017-05-22T11:24:40.684Z,88704
2017-05-22T11:29:37.383Z,98720
2017-05-22T11:34:34.029Z,133280
2017-05-22T11:39:30.833Z,111680
2017-05-22T11:44:30.829Z,89984
2017-05-22T11:49:26.279Z,20160
2017-05-22T11:54:25.855Z,14304
2017-05-22T11:59:21.751Z,109984
2017-05-22T12:09:24.245Z,126656
2017-05-22T12:14:21.222Z,85184
2017-05-22T12:19:17.310Z,68704
2017-05-22T12:24:14.107Z,72608
2017-05-22T12:29:09.638Z,64736
2017-05-22T12:34:05.115Z,101728
2017-05-22T12:39:04.025Z,112576
2017-05-22T12:43:59.702Z,115136
2017-05-22T12:48:55.903Z,92032
2017-05-22T12:53:51.502Z,88992
2017-05-22T12:58:46.730Z,64800
2017-05-22T13:03:42.384Z,59584
2017-05-22T13:08:37.423Z,77792
2017-05-22T13:13:32.630Z,93696
2017-05-22T13:18:30.304Z,86432
2017-05-22T13:23:26.187Z,82528
2017-05-22T13:28:21.689Z,66336
2017-05-22T13:33:19.660Z,64704
2017-05-22T13:38:14.962Z,67232
2017-05-22T13:43:10.803Z,93568
2017-05-22T13:48:07.155Z,74656
2017-05-22T13:53:02.535Z,72320
2017-05-22T13:57:58.024Z,76384
2017-05-22T14:02:54.067Z,80736
2017-05-22T14:07:52.442Z,4784
2017-05-22T14:12:47.513Z,3896
2017-05-22T14:17:42.287Z,3788
2017-05-22T14:22:37.766Z,3736
2017-05-22T14:27:32.646Z,3788
2017-05-22T14:32:28.012Z,3680
2017-05-22T14:37:23.790Z,3584
2017-05-22T14:42:19.323Z,3548
2017-05-22T14:47:15.217Z,3428
2017-05-22T14:52:11.474Z,3280
2017-05-22T14:57:07.186Z,3200
2017-05-22T15:02:02.968Z,3172
2017-05-22T15:06:58.650Z,3080
2017-05-22T15:11:54.388Z,3176
2017-05-22T15:16:51.437Z,3260
2017-05-22T15:21:47.187Z,3268
2017-05-22T15:26:43.033Z,3064
2017-05-22T15:31:42.406Z,2840
2017-05-22T15:36:37.633Z,3284
2017-05-22T15:41:33.313Z,2968
2017-05-22T15:46:29.143Z,3476
2017-05-22T15:51:25.363Z,4200
2017-05-22T15:56:21.472Z,4828
2017-05-22T16:01:17.519Z,5304
2017-05-22T16:06:13.458Z,5508
2017-05-22T16:11:10.794Z,5264
2017-05-22T16:16:06.338Z,4632
2017-05-22T16:21:02.136Z,3928
2017-05-22T16:25:57.855Z,3652
2017-05-22T16:30:53.754Z,3736
2017-05-22T16:35:49.776Z,4300
2017-05-22T16:40:46.320Z,4912
2017-05-22T16:45:42.619Z,5104
2017-05-22T16:50:38.635Z,5080
2017-05-22T16:55:34.859Z,4484
2017-05-22T17:00:30.796Z,3908
2017-05-22T17:05:26.816Z,3564
2017-05-22T17:10:22.629Z,3364
2017-05-22T17:15:18.706Z,3076
2017-05-22T17:20:14.419Z,2592
2017-05-22T17:25:10.159Z,2248
2017-05-22T17:30:06.114Z,1944
2017-05-22T17:35:03.298Z,1692
2017-05-22T17:39:59.379Z,1456
2017-05-22T17:44:54.897Z,1244
2017-05-22T17:49:50.597Z,1080
2017-05-22T17:54:46.196Z,992
2017-05-22T17:59:41.872Z,996
2017-05-22T18:04:38.198Z,1140
2017-05-22T18:09:33.573Z,1296
2017-05-22T18:14:29.707Z,1420
2017-05-22T18:19:25.477Z,1500
2017-05-22T18:24:21.270Z,1568
2017-05-22T18:29:18.063Z,1488
2017-05-22T18:34:13.534Z,1244
2017-05-22T18:39:09.876Z,1028
2017-05-22T18:44:05.341Z,788
2017-05-22T18:49:01.260Z,704
2017-05-22T18:53:58.042Z,668
2017-05-22T18:58:53.436Z,540
2017-05-22T19:03:49.292Z,420
2017-05-22T19:08:51.223Z,324
2017-05-22T19:13:45.696Z,236
2017-05-22T19:18:42.446Z,168
2017-05-22T19:23:37.779Z,116
2017-05-22T19:28:37.713Z,76
2017-05-22T19:33:39.548Z,52
2017-05-22T19:38:38.177Z,32
2017-05-22T19:43:32.871Z,20
2017-05-22T19:48:28.712Z,8
2017-05-22T19:53:24.374Z,4
2017-05-22T19:58:20.167Z,0
2017-05-22T20:03:19.464Z,0
2017-05-22T20:08:17.858Z,0
2017-05-22T20:13:27.392Z,0
2017-05-22T20:18:25.730Z,0
2017-05-22T20:23:21.128Z,0
2017-05-22T20:28:17.627Z,0
2017-05-22T20:33:14.963Z,0
2017-05-22T20:38:10.901Z,0
2017-05-22T20:43:06.691Z,0
2017-05-22T20:48:02.094Z,0
2017-05-22T20:52:57.753Z,0
2017-05-22T20:57:54.774Z,0
2017-05-22T21:02:56.617Z,0
2017-05-22T21:07:50.899Z,0
2017-05-22T21:12:58.071Z,0
2017-05-22T21:17:52.928Z,0
2017-05-22T21:22:49.681Z,0
2017-05-22T21:27:44.914Z,0
2017-05-22T21:32:40.445Z,0
2017-05-22T21:37:36.235Z,0
2017-05-22T21:42:32.136Z,0
2017-05-22T21:47:28.028Z,0
2017-05-22T21:52:23.970Z,0
2017-05-22T21:57:19.904Z,0
2017-05-22T22:02:16.756Z,0
2017-05-22T22:07:13.653Z,0
2017-05-22T22:12:09.419Z,0
2017-05-22T22:17:05.600Z,0
2017-05-22T22:22:02.293Z,0
2017-05-22T22:26:57.915Z,0
2017-05-22T22:31:53.604Z,0
2017-05-22T22:36:50.774Z,0
2017-05-22T22:41:46.669Z,0
2017-05-22T22:46:42.269Z,0
2017-05-22T22:51:38.644Z,0
2017-05-22T22:56:34.638Z,0
2017-05-22T23:01:30.078Z,0
2017-05-22T23:06:29.438Z,0
2017-05-22T23:11:24.650Z,0
2017-05-22T23:16:20.697Z,0
2017-05-22T23:21:16.319Z,0
2017-05-22T23:26:12.026Z,0
2017-05-22T23:31:07.684Z,0
2017-05-22T23:36:09.167Z,0
2017-05-22T23:41:03.416Z,0
2017-05-22T23:45:59.166Z,0
2017-05-22T23:50:55.027Z,0
2017-05-22T23:55:50.427Z,0
